createdAt,value
2023-02-19T00:02:00.711Z,21.1
2023-02-19T00:07:30.163Z,21.2
2023-02-19T00:13:00.682Z,21.2
2023-02-19T00:18:31.136Z,21.2
2023-02-19T00:24:01.757Z,21.2
2023-02-19T00:29:32.419Z,21.1
2023-02-19T00:35:02.837Z,21.1
2023-02-19T00:40:32.335Z,21.1
2023-02-19T00:46:02.978Z,21.1
2023-02-19T00:51:32.300Z,21.1
2023-02-19T00:57:02.761Z,21.1
2023-02-19T01:02:33.250Z,21.1
2023-02-19T01:08:03.835Z,21.1
2023-02-19T01:13:34.316Z,21.1
2023-02-19T01:19:04.802Z,21.2
2023-02-19T01:24:34.271Z,21.1
2023-02-19T01:30:04.931Z,21.1
2023-02-19T01:35:35.369Z,21.2
2023-02-19T01:41:05.834Z,21.2
2023-02-19T01:46:36.470Z,21.1
2023-02-19T01:52:06.931Z,21.2
2023-02-19T01:57:37.394Z,21.2
2023-02-19T02:03:08.011Z,21.2
2023-02-19T02:08:38.474Z,21.2
2023-02-19T02:14:08.938Z,21.2
2023-02-19T02:19:39.542Z,21.2
2023-02-19T02:25:10.130Z,21.2
2023-02-19T02:30:40.603Z,21.2
2023-02-19T02:36:11.228Z,21.2
2023-02-19T02:41:41.695Z,21.1
2023-02-19T02:47:12.150Z,21.2
2023-02-19T02:52:41.633Z,21.2
2023-02-19T02:58:12.108Z,21.2
2023-02-19T03:03:42.594Z,21.2
2023-02-19T03:09:13.192Z,21.2
2023-02-19T03:14:43.681Z,21.2
2023-02-19T03:20:14.136Z,21.2
2023-02-19T03:25:43.676Z,21.2
2023-02-19T03:31:14.311Z,21.3
2023-02-19T03:36:44.597Z,21.2
2023-02-19T03:42:15.192Z,21.2
2023-02-19T03:47:45.684Z,21.2
2023-02-19T03:53:16.248Z,21.2
2023-02-19T03:58:46.844Z,21.3
2023-02-19T04:04:17.394Z,21.3
2023-02-19T04:09:47.811Z,21.3
2023-02-19T04:15:17.289Z,21.2
2023-02-19T04:20:47.765Z,21.3
2023-02-19T04:26:18.247Z,21.3
2023-02-19T04:31:48.945Z,21.3
2023-02-19T04:37:19.404Z,21.3
2023-02-19T04:42:48.902Z,21.3
2023-02-19T04:48:19.374Z,21.3
2023-02-19T04:53:49.840Z,21.3
2023-02-19T04:59:19.348Z,21.3
2023-02-19T05:04:49.812Z,21.3
2023-02-19T05:10:19.307Z,21.3
2023-02-19T05:15:49.778Z,21.2
2023-02-19T05:21:20.254Z,21.3
2023-02-19T05:26:50.839Z,21.3
2023-02-19T05:32:21.334Z,21.3
2023-02-19T05:37:51.932Z,21.2
2023-02-19T05:43:22.435Z,21.3
2023-02-19T05:48:52.890Z,21.3
2023-02-19T05:54:22.392Z,21.2
2023-02-19T05:59:52.853Z,21.2
2023-02-19T06:05:23.466Z,21.3
2023-02-19T06:10:53.938Z,21.2
2023-02-19T06:16:24.481Z,21.3
2023-02-19T06:21:53.926Z,21.3
2023-02-19T06:27:24.384Z,21.2
2023-02-19T06:32:54.888Z,21.2
2023-02-19T06:38:25.486Z,21.2
2023-02-19T06:43:55.954Z,21.2
2023-02-19T06:49:26.478Z,21.2
2023-02-19T06:54:55.977Z,21.2
2023-02-19T07:00:26.464Z,21.3
2023-02-19T07:05:55.921Z,21.2
2023-02-19T07:11:26.410Z,21.3
2023-02-19T07:16:56.920Z,21.3
2023-02-19T07:22:27.495Z,21.3
2023-02-19T07:27:57.955Z,21.3
2023-02-19T07:33:27.506Z,21.3
2023-02-19T07:38:57.922Z,21.2
2023-02-19T07:44:28.412Z,21.2
2023-02-19T07:49:59.013Z,21.2
2023-02-19T07:55:29.457Z,21.2
2023-02-19T08:00:59.953Z,21.2
2023-02-19T08:06:30.525Z,21.2
2023-02-19T08:12:00.985Z,21.2
2023-02-19T08:17:31.502Z,21.2
2023-02-19T08:23:02.082Z,21.2
2023-02-19T08:28:32.696Z,21.2
2023-02-19T08:34:02.208Z,21.2
2023-02-19T08:39:32.649Z,21.1
2023-02-19T08:45:03.121Z,21.1
2023-02-19T08:50:32.667Z,21.1
2023-02-19T08:56:03.101Z,21.1
2023-02-19T09:01:33.612Z,21.1
2023-02-19T09:08:10.281Z,21.1
2023-02-19T09:13:40.788Z,21.1
2023-02-19T09:19:10.250Z,21.1
2023-02-19T09:24:40.733Z,21.1
2023-02-19T09:30:11.244Z,21.1
2023-02-19T09:35:40.714Z,21.1
2023-02-19T09:41:11.371Z,21
2023-02-19T09:46:41.621Z,21
2023-02-19T09:52:12.574Z,21
2023-02-19T09:57:42.726Z,21
2023-02-19T10:03:13.299Z,21
2023-02-19T10:08:43.758Z,21
2023-02-19T10:14:14.262Z,21
2023-02-19T10:19:43.732Z,21
2023-02-19T10:25:14.233Z,21
2023-02-19T10:30:44.683Z,21
2023-02-19T10:36:15.263Z,21
2023-02-19T10:42:51.965Z,21
2023-02-19T10:48:21.486Z,21
2023-02-19T10:53:51.932Z,21
2023-02-19T10:59:22.421Z,20.9
2023-02-19T11:04:51.908Z,21
2023-02-19T11:10:22.394Z,21
2023-02-19T11:15:52.920Z,20.9
2023-02-19T11:21:22.324Z,21
2023-02-19T11:26:52.803Z,20.9
2023-02-19T11:32:23.335Z,21
2023-02-19T11:37:53.892Z,20.9
2023-02-19T11:43:24.370Z,20.9
2023-02-19T11:48:54.857Z,20.9
2023-02-19T11:54:24.318Z,20.9
2023-02-19T11:59:54.781Z,20.9
2023-02-19T12:05:25.468Z,20.9
2023-02-19T12:10:55.870Z,20.9
2023-02-19T12:16:26.386Z,20.9
2023-02-19T12:21:55.887Z,20.9
2023-02-19T12:27:26.308Z,20.9
2023-02-19T12:32:55.817Z,20.9
2023-02-19T12:38:26.313Z,20.9
2023-02-19T12:43:56.901Z,20.9
2023-02-19T12:49:27.362Z,20.9
2023-02-19T12:54:57.819Z,20.9
2023-02-19T13:00:28.435Z,20.9
2023-02-19T13:05:58.912Z,20.9
2023-02-19T13:11:29.486Z,20.9
2023-02-19T13:17:00.010Z,20.9
2023-02-19T13:22:30.488Z,20.8
2023-02-19T13:28:00.940Z,20.8
2023-02-19T13:33:30.407Z,20.8
2023-02-19T13:39:00.892Z,20.8
2023-02-19T13:44:30.361Z,20.8
2023-02-19T13:50:00.851Z,20.8
2023-02-19T13:55:31.306Z,20.8
2023-02-19T14:01:01.908Z,20.8
2023-02-19T14:06:32.503Z,20.8
2023-02-19T14:12:02.009Z,20.8
2023-02-19T14:17:32.490Z,20.8
2023-02-19T14:23:02.971Z,20.8
2023-02-19T14:28:33.615Z,20.8
2023-02-19T14:34:04.025Z,20.8
2023-02-19T14:39:34.468Z,20.8
2023-02-19T14:45:05.073Z,20.8
2023-02-19T14:50:35.693Z,20.8
2023-02-19T14:56:06.177Z,20.7
2023-02-19T15:01:36.871Z,20.8
2023-02-19T15:07:07.221Z,20.7
2023-02-19T15:12:36.730Z,20.7
2023-02-19T15:18:07.223Z,20.8
2023-02-19T15:23:37.697Z,20.8
2023-02-19T15:29:08.406Z,20.7
2023-02-19T15:34:38.878Z,20.8
2023-02-19T15:40:09.372Z,20.7
2023-02-19T15:45:38.848Z,20.7
2023-02-19T15:51:09.713Z,20.7
2023-02-19T15:56:39.909Z,20.7
2023-02-19T16:02:10.386Z,20.7
2023-02-19T16:07:40.865Z,20.7
2023-02-19T16:13:10.368Z,20.7
2023-02-19T16:18:40.845Z,20.7
2023-02-19T16:24:11.307Z,20.7
2023-02-19T16:29:42.036Z,20.7
2023-02-19T16:35:12.476Z,20.7
2023-02-19T16:40:41.967Z,20.7
2023-02-19T16:46:12.494Z,20.7
2023-02-19T16:51:42.890Z,20.7
2023-02-19T16:57:13.475Z,20.7
2023-02-19T17:02:43.959Z,20.7
2023-02-19T17:08:14.445Z,20.7
2023-02-19T17:13:43.919Z,20.7
2023-02-19T17:19:14.414Z,20.7
2023-02-19T17:24:43.904Z,20.7
2023-02-19T17:30:14.423Z,20.7
2023-02-19T17:35:44.887Z,20.7
2023-02-19T17:41:15.454Z,20.7
2023-02-19T17:46:45.909Z,20.7
2023-02-19T17:52:16.510Z,20.7
2023-02-19T17:57:47.000Z,20.7
2023-02-19T18:03:17.480Z,20.7
2023-02-19T18:08:48.058Z,20.6
2023-02-19T18:14:18.518Z,20.7
2023-02-19T18:19:48.987Z,20.7
2023-02-19T18:25:19.577Z,20.7
2023-02-19T18:30:50.302Z,20.8
2023-02-19T18:36:19.547Z,20.9
2023-02-19T18:41:50.099Z,21
2023-02-19T18:47:20.517Z,21.1
2023-02-19T18:52:50.988Z,21.2
2023-02-19T18:58:21.617Z,21.3
2023-02-19T19:03:52.105Z,21.3
2023-02-19T19:09:22.802Z,21.4
2023-02-19T19:14:53.282Z,21.5
2023-02-19T19:20:23.909Z,21.5
2023-02-19T19:25:53.484Z,21.6
2023-02-19T19:31:24.056Z,21.6
2023-02-19T19:36:54.378Z,21.6
2023-02-19T19:42:24.993Z,21.6
2023-02-19T19:47:55.448Z,21.7
2023-02-19T19:53:24.990Z,21.7
2023-02-19T19:58:55.420Z,21.7
2023-02-19T20:04:25.902Z,21.7
2023-02-19T20:09:56.480Z,21.8
2023-02-19T20:15:26.973Z,21.8
2023-02-19T20:20:57.529Z,21.8
2023-02-19T20:26:26.993Z,21.8
2023-02-19T20:31:57.613Z,21.8
2023-02-19T20:37:27.964Z,21.8
2023-02-19T20:42:57.457Z,21.8
2023-02-19T20:48:27.945Z,21.8
2023-02-19T20:53:57.425Z,21.7
2023-02-19T20:59:27.875Z,21.7
2023-02-19T21:04:58.453Z,21.7
2023-02-19T21:10:27.934Z,21.6
2023-02-19T21:15:58.426Z,21.6
2023-02-19T21:21:28.908Z,21.6
2023-02-19T21:26:58.375Z,21.6
2023-02-19T21:32:28.906Z,21.7
2023-02-19T21:39:04.437Z,21.6
2023-02-19T21:44:34.938Z,21.6
2023-02-19T21:50:05.732Z,21.6
2023-02-19T21:55:35.998Z,21.6
2023-02-19T22:01:06.524Z,21.6
2023-02-19T22:06:36.955Z,21.6
2023-02-19T22:12:06.440Z,21.6
2023-02-19T22:17:36.912Z,21.6
2023-02-19T22:23:07.504Z,21.6
2023-02-19T22:28:37.984Z,21.5
2023-02-19T22:34:08.480Z,21.5
2023-02-19T22:39:39.109Z,21.5
2023-02-19T22:45:09.579Z,21.5
2023-02-19T22:50:40.046Z,21.5
2023-02-19T22:56:11.219Z,21.5
2023-02-19T23:01:41.268Z,21.5
2023-02-19T23:07:11.743Z,21.5
2023-02-19T23:12:41.223Z,21.5
2023-02-19T23:18:11.718Z,21.5
2023-02-19T23:23:42.187Z,21.5
2023-02-19T23:29:11.692Z,21.5
2023-02-19T23:34:42.294Z,21.5
2023-02-19T23:40:12.758Z,21.5
2023-02-19T23:45:43.336Z,21.5
2023-02-19T23:51:12.737Z,21.5
2023-02-19T23:56:43.193Z,21.5
